createdAt,value
2023-02-14T00:01:14.658Z,44.17
2023-02-14T00:03:45.928Z,23.40
2023-02-14T00:06:16.768Z,48.77
2023-02-14T00:08:48.687Z,45.57
2023-02-14T00:11:17.921Z,30.87
2023-02-14T00:14:07.445Z,31.27
2023-02-14T00:16:34.942Z,32.83
2023-02-14T00:19:07.648Z,50.30
2023-02-14T00:21:38.770Z,27.03
2023-02-14T00:24:09.425Z,34.87
2023-02-14T00:26:39.266Z,51.83
2023-02-14T00:29:09.688Z,23.60
2023-02-14T00:31:39.074Z,46.00
2023-02-14T00:34:10.226Z,35.67
2023-02-14T00:36:40.404Z,30.53
2023-02-14T00:39:11.855Z,35.53
2023-02-14T00:41:41.212Z,33.20
2023-02-14T00:44:11.317Z,28.67
2023-02-14T00:46:40.661Z,22.97
2023-02-14T00:49:11.992Z,22.60
2023-02-14T00:51:40.998Z,48.03
2023-02-14T00:54:10.200Z,30.53
2023-02-14T00:56:38.708Z,34.60
2023-02-14T00:59:09.124Z,41.17
2023-02-14T01:01:38.746Z,25.37
2023-02-14T01:04:08.508Z,26.50
2023-02-14T01:06:40.374Z,34.70
2023-02-14T01:09:09.050Z,27.17
2023-02-14T01:11:43.323Z,25.93
2023-02-14T01:14:13.403Z,22.60
2023-02-14T01:16:44.838Z,29.30
2023-02-14T01:19:16.102Z,31.47
2023-02-14T01:21:48.388Z,29.10
2023-02-14T01:24:17.120Z,25.23
2023-02-14T01:26:47.542Z,26.47
2023-02-14T01:29:15.969Z,39.03
2023-02-14T01:31:46.766Z,29.57
2023-02-14T01:34:15.486Z,25.27
2023-02-14T01:36:47.056Z,29.43
2023-02-14T01:39:17.787Z,25.63
2023-02-14T01:41:48.865Z,37.77
2023-02-14T01:44:55.767Z,31.50
2023-02-14T01:47:25.192Z,27.13
2023-02-14T01:49:57.726Z,32.07
2023-02-14T01:52:35.171Z,25.83
2023-02-14T01:55:07.596Z,20.83
2023-02-14T01:57:43.465Z,27.93
2023-02-14T02:00:27.685Z,23.67
2023-02-14T02:02:58.776Z,24.80
2023-02-14T02:05:32.036Z,22.67
2023-02-14T02:08:03.611Z,29.40
2023-02-14T02:10:32.569Z,26.60
2023-02-14T02:13:06.862Z,30.13
2023-02-14T02:15:43.724Z,35.13
2023-02-14T02:18:17.889Z,41.40
2023-02-14T02:21:18.472Z,22.83
2023-02-14T02:24:13.378Z,23.07
2023-02-14T02:27:13.424Z,19.37
2023-02-14T02:30:24.220Z,27.60
2023-02-14T02:33:29.891Z,20.30
2023-02-14T02:36:15.288Z,26.40
2023-02-14T02:38:57.170Z,30.97
2023-02-14T02:41:41.761Z,24.83
2023-02-14T02:44:17.034Z,25.97
2023-02-14T02:46:57.788Z,33.37
2023-02-14T02:49:52.581Z,46.83
2023-02-14T02:52:47.086Z,37.07
2023-02-14T02:55:22.970Z,20.07
2023-02-14T02:57:51.976Z,18.80
2023-02-14T03:00:23.537Z,20.80
2023-02-14T03:03:14.290Z,28.87
2023-02-14T03:05:43.397Z,23.53
2023-02-14T03:08:13.744Z,46.63
2023-02-14T03:10:44.262Z,34.33
2023-02-14T03:13:40.040Z,27.93
2023-02-14T03:16:22.449Z,20.27
2023-02-14T03:19:11.568Z,21.93
2023-02-14T03:21:52.640Z,30.77
2023-02-14T03:24:29.577Z,32.00
2023-02-14T03:27:05.351Z,26.83
2023-02-14T03:29:45.679Z,30.03
2023-02-14T03:32:20.842Z,41.17
2023-02-14T03:34:59.787Z,39.40
2023-02-14T03:37:32.691Z,28.30
2023-02-14T03:40:10.332Z,44.53
2023-02-14T03:42:44.445Z,36.63
2023-02-14T03:45:18.546Z,42.83
2023-02-14T03:47:48.573Z,30.67
2023-02-14T03:50:20.505Z,20.73
2023-02-14T03:52:53.492Z,26.07
2023-02-14T03:55:29.358Z,20.80
2023-02-14T03:58:04.573Z,33.83
2023-02-14T04:00:37.303Z,50.13
2023-02-14T04:03:11.942Z,30.93
2023-02-14T04:05:43.946Z,33.83
2023-02-14T04:08:13.132Z,33.97
2023-02-14T04:10:45.608Z,18.73
2023-02-14T04:13:14.215Z,18.33
2023-02-14T04:15:42.551Z,27.00
2023-02-14T04:18:29.763Z,30.07
2023-02-14T04:20:58.276Z,21.73
2023-02-14T04:23:27.010Z,22.30
2023-02-14T04:25:56.847Z,27.43
2023-02-14T04:28:24.969Z,20.47
2023-02-14T04:30:53.510Z,40.17
2023-02-14T04:33:22.204Z,32.93
2023-02-14T04:35:50.672Z,40.60
2023-02-14T04:38:18.946Z,30.00
2023-02-14T04:40:49.358Z,27.80
2023-02-14T04:43:19.924Z,22.20
2023-02-14T04:45:48.564Z,30.63
2023-02-14T04:48:16.819Z,21.40
2023-02-14T04:50:45.157Z,36.43
2023-02-14T04:53:13.376Z,19.97
2023-02-14T04:55:41.637Z,25.77
2023-02-14T04:58:09.771Z,20.27
2023-02-14T05:00:39.706Z,21.60
2023-02-14T05:03:07.754Z,34.90
2023-02-14T05:05:35.781Z,35.60
2023-02-14T05:08:04.047Z,27.53
2023-02-14T05:10:32.332Z,25.23
2023-02-14T05:13:01.861Z,25.00
2023-02-14T05:15:30.200Z,24.20
2023-02-14T05:18:03.322Z,25.00
2023-02-14T05:20:31.648Z,18.93
2023-02-14T05:23:03.542Z,28.40
2023-02-14T05:25:31.702Z,21.23
2023-02-14T05:28:00.756Z,28.70
2023-02-14T05:30:30.450Z,37.33
2023-02-14T05:33:00.854Z,23.80
2023-02-14T05:35:29.113Z,71.73
2023-02-14T05:37:57.553Z,21.10
2023-02-14T05:40:26.991Z,32.03
2023-02-14T05:42:57.063Z,22.90
2023-02-14T05:45:26.278Z,18.63
2023-02-14T05:47:55.515Z,39.93
2023-02-14T05:50:25.970Z,54.27
2023-02-14T05:52:55.465Z,41.27
2023-02-14T05:55:25.152Z,24.63
2023-02-14T05:57:54.669Z,23.67
2023-02-14T06:00:23.879Z,39.53
2023-02-14T06:02:52.053Z,38.10
2023-02-14T06:05:24.142Z,31.13
2023-02-14T06:07:53.924Z,34.20
2023-02-14T06:10:24.775Z,29.60
2023-02-14T06:12:54.744Z,27.90
2023-02-14T06:15:23.436Z,31.97
2023-02-14T06:17:55.120Z,21.97
2023-02-14T06:20:24.863Z,36.50
2023-02-14T06:22:55.810Z,23.80
2023-02-14T06:25:30.632Z,18.93
2023-02-14T06:28:02.982Z,26.03
2023-02-14T06:30:32.631Z,34.77
2023-02-14T06:35:55.567Z,26.00
2023-02-14T06:38:27.161Z,33.27
2023-02-14T06:41:00.705Z,33.40
2023-02-14T06:43:29.158Z,21.37
2023-02-14T06:45:57.741Z,18.57
2023-02-14T06:48:26.324Z,18.20
2023-02-14T06:50:54.542Z,19.37
2023-02-14T06:53:27.849Z,31.50
2023-02-14T06:55:57.764Z,45.43
2023-02-14T06:58:26.351Z,40.90
2023-02-14T07:00:56.387Z,30.40
2023-02-14T07:03:25.517Z,54.93
2023-02-14T07:05:55.112Z,27.33
2023-02-14T07:08:26.318Z,43.33
2023-02-14T07:10:58.544Z,26.83
2023-02-14T07:13:27.493Z,39.67
2023-02-14T07:15:56.089Z,30.97
2023-02-14T07:18:24.712Z,26.37
2023-02-14T07:20:53.715Z,19.87
2023-02-14T07:23:23.319Z,23.53
2023-02-14T07:25:53.640Z,19.83
2023-02-14T07:28:23.308Z,18.03
2023-02-14T07:30:54.024Z,29.47
2023-02-14T07:33:23.780Z,23.47
2023-02-14T07:35:56.044Z,22.03
2023-02-14T07:38:25.090Z,27.37
2023-02-14T07:40:56.702Z,22.40
2023-02-14T07:43:25.015Z,19.60
2023-02-14T07:45:55.946Z,17.37
2023-02-14T07:48:29.290Z,49.63
2023-02-14T07:51:00.076Z,18.43
2023-02-14T07:53:29.034Z,24.07
2023-02-14T07:55:58.968Z,21.87
2023-02-14T07:58:27.220Z,19.57
2023-02-14T08:00:56.638Z,23.93
2023-02-14T08:03:29.628Z,21.90
2023-02-14T08:06:01.135Z,17.90
2023-02-14T08:08:32.474Z,19.00
2023-02-14T08:11:03.366Z,15.60
2023-02-14T08:13:31.949Z,18.10
2023-02-14T08:16:06.785Z,21.43
2023-02-14T08:18:37.839Z,22.47
2023-02-14T08:21:09.015Z,18.33
2023-02-14T08:23:37.790Z,16.90
2023-02-14T08:26:10.132Z,18.07
2023-02-14T08:28:38.765Z,15.50
2023-02-14T08:31:07.683Z,15.17
2023-02-14T08:33:36.520Z,17.83
2023-02-14T08:36:05.525Z,18.50
2023-02-14T08:38:34.344Z,19.13
2023-02-14T08:41:07.601Z,19.13
2023-02-14T08:43:39.432Z,14.60
2023-02-14T08:46:08.355Z,18.70
2023-02-14T08:48:39.423Z,17.57
2023-02-14T08:51:10.041Z,14.23
2023-02-14T08:53:38.995Z,14.90
2023-02-14T08:56:09.313Z,15.33
2023-02-14T08:58:40.560Z,17.50
2023-02-14T09:01:10.885Z,15.63
2023-02-14T09:03:40.203Z,16.63
2023-02-14T09:06:10.744Z,17.87
2023-02-14T09:08:41.061Z,26.20
2023-02-14T09:11:10.997Z,20.57
2023-02-14T09:13:42.786Z,20.07
2023-02-14T09:16:14.646Z,19.27
2023-02-14T09:18:43.094Z,19.97
2023-02-14T09:21:13.859Z,20.33
2023-02-14T09:23:42.560Z,20.50
2023-02-14T09:26:14.532Z,24.47
2023-02-14T09:28:45.996Z,19.67
2023-02-14T09:31:18.622Z,19.10
2023-02-14T09:34:07.375Z,18.40
2023-02-14T09:36:53.131Z,20.20
2023-02-14T09:39:23.586Z,21.70
2023-02-14T09:42:17.848Z,18.30
2023-02-14T09:44:51.820Z,22.03
2023-02-14T09:47:27.033Z,20.23
2023-02-14T09:49:56.443Z,17.90
2023-02-14T09:52:29.080Z,18.67
2023-02-14T09:55:01.495Z,17.77
2023-02-14T09:57:38.795Z,16.80
2023-02-14T10:00:20.503Z,15.80
2023-02-14T10:03:01.245Z,15.53
2023-02-14T10:05:37.687Z,15.63
2023-02-14T10:08:17.421Z,19.47
2023-02-14T10:10:49.726Z,25.37
2023-02-14T10:13:24.747Z,15.63
2023-02-14T10:16:01.536Z,17.23
2023-02-14T10:19:02.793Z,20.27
2023-02-14T10:21:41.596Z,17.93
2023-02-14T10:24:16.118Z,19.33
2023-02-14T10:26:45.480Z,17.30
2023-02-14T10:29:17.121Z,21.90
2023-02-14T10:31:57.958Z,18.33
2023-02-14T10:34:34.622Z,19.07
2023-02-14T10:37:32.774Z,18.90
2023-02-14T10:40:17.441Z,16.93
2023-02-14T10:42:55.065Z,18.80
2023-02-14T10:45:30.409Z,19.47
2023-02-14T10:48:07.211Z,22.70
2023-02-14T10:50:46.694Z,17.67
2023-02-14T10:53:22.827Z,18.67
2023-02-14T10:55:57.396Z,19.23
2023-02-14T10:58:30.381Z,21.13
2023-02-14T11:01:05.323Z,20.07
2023-02-14T11:03:41.082Z,19.33
2023-02-14T11:06:16.987Z,21.43
2023-02-14T11:08:45.898Z,17.63
2023-02-14T11:11:23.383Z,19.97
2023-02-14T11:13:55.797Z,20.90
2023-02-14T11:16:32.391Z,24.33
2023-02-14T11:19:22.183Z,19.80
2023-02-14T11:21:52.517Z,19.57
2023-02-14T11:24:29.858Z,19.07
2023-02-14T11:27:00.972Z,21.07
2023-02-14T11:29:31.849Z,16.93
2023-02-14T11:32:09.460Z,17.23
2023-02-14T11:34:42.326Z,20.63
2023-02-14T11:37:30.213Z,19.80
2023-02-14T11:40:01.973Z,18.00
2023-02-14T11:42:42.850Z,19.50
2023-02-14T11:45:29.577Z,16.93
2023-02-14T11:48:22.404Z,20.57
2023-02-14T11:51:07.940Z,18.03
2023-02-14T11:53:46.117Z,17.63
2023-02-14T11:56:15.784Z,18.63
2023-02-14T11:58:51.874Z,23.93
2023-02-14T12:01:25.753Z,23.37
2023-02-14T12:03:56.758Z,18.43
2023-02-14T12:06:29.315Z,15.77
2023-02-14T12:09:13.450Z,18.20
2023-02-14T12:11:41.802Z,19.13
2023-02-14T12:14:22.333Z,17.53
2023-02-14T12:16:58.531Z,18.17
2023-02-14T12:19:36.895Z,16.50
2023-02-14T12:22:07.948Z,26.43
2023-02-14T12:24:39.810Z,18.50
2023-02-14T12:27:21.481Z,18.83
2023-02-14T12:29:55.382Z,19.53
2023-02-14T12:32:26.662Z,17.37
2023-02-14T12:35:01.135Z,19.00
2023-02-14T12:37:42.336Z,17.77
2023-02-14T12:40:22.849Z,17.83
2023-02-14T12:43:05.036Z,20.60
2023-02-14T12:45:56.984Z,20.07
2023-02-14T12:48:35.387Z,17.60
2023-02-14T12:51:09.141Z,16.00
2023-02-14T12:54:10.839Z,17.67
2023-02-14T12:56:49.930Z,17.17
2023-02-14T12:59:30.956Z,17.87
2023-02-14T13:02:25.903Z,22.03
2023-02-14T13:05:03.757Z,15.87
2023-02-14T13:10:58.558Z,17.73
2023-02-14T13:13:34.601Z,17.20
2023-02-14T13:19:21.510Z,16.20
2023-02-14T13:21:52.049Z,16.63
2023-02-14T13:24:23.996Z,16.33
2023-02-14T13:26:59.609Z,14.50
2023-02-14T13:29:32.667Z,15.77
2023-02-14T13:32:04.672Z,16.87
2023-02-14T13:34:38.199Z,19.60
2023-02-14T13:37:12.197Z,14.77
2023-02-14T13:39:45.268Z,16.13
2023-02-14T13:42:38.281Z,16.97
2023-02-14T13:45:11.202Z,17.13
2023-02-14T13:47:40.665Z,19.97
2023-02-14T13:50:23.275Z,16.50
2023-02-14T13:52:57.373Z,17.47
2023-02-14T13:55:31.014Z,15.77
2023-02-14T13:58:22.042Z,17.03
2023-02-14T14:00:51.375Z,18.50
2023-02-14T14:04:03.030Z,15.67
2023-02-14T14:06:55.461Z,16.40
2023-02-14T14:09:54.357Z,15.10
2023-02-14T14:12:43.050Z,23.50
2023-02-14T14:15:16.908Z,16.33
2023-02-14T14:17:50.211Z,20.20
2023-02-14T14:20:46.192Z,17.73
2023-02-14T14:23:38.649Z,17.83
2023-02-14T14:26:38.190Z,20.17
2023-02-14T14:29:20.535Z,17.13
2023-02-14T14:32:00.434Z,22.23
2023-02-14T14:34:33.314Z,18.50
2023-02-14T14:37:09.589Z,19.87
2023-02-14T14:39:43.406Z,18.97
2023-02-14T14:42:40.566Z,20.27
2023-02-14T14:45:26.456Z,17.87
2023-02-14T14:48:01.436Z,18.77
2023-02-14T14:50:52.677Z,18.90
2023-02-14T14:53:41.118Z,23.80
2023-02-14T14:56:36.468Z,23.47
2023-02-14T15:00:03.364Z,20.13
2023-02-14T15:06:20.514Z,20.30
2023-02-14T15:09:09.947Z,20.33
2023-02-14T15:12:25.036Z,16.83
2023-02-14T15:15:04.475Z,18.77
2023-02-14T15:18:17.925Z,18.23
2023-02-14T15:25:03.497Z,20.77
2023-02-14T15:31:11.620Z,19.80
2023-02-14T15:34:41.340Z,19.03
2023-02-14T15:57:19.569Z,24.60
2023-02-14T16:03:23.857Z,21.97
2023-02-14T16:06:24.020Z,35.97
2023-02-14T16:13:39.355Z,26.23
2023-02-14T16:16:35.726Z,24.93
2023-02-14T16:25:50.943Z,41.43
2023-02-14T16:34:43.866Z,59.67
2023-02-14T16:40:44.946Z,41.73
2023-02-14T16:43:14.795Z,28.37
2023-02-14T16:45:46.185Z,51.13
2023-02-14T16:48:17.380Z,79.87
2023-02-14T16:50:47.938Z,87.87
2023-02-14T16:53:54.717Z,47.97
2023-02-14T16:56:39.308Z,54.17
2023-02-14T16:59:07.883Z,63.03
2023-02-14T17:01:39.272Z,41.50
2023-02-14T17:04:21.416Z,62.93
2023-02-14T17:06:57.667Z,36.43
2023-02-14T17:09:33.957Z,37.20
2023-02-14T17:12:08.872Z,44.37
2023-02-14T17:14:39.703Z,72.20
2023-02-14T17:17:08.088Z,91.30
2023-02-14T17:19:39.320Z,31.17
2023-02-14T17:35:35.817Z,95.57
2023-02-14T17:38:08.306Z,39.97
2023-02-14T17:40:37.078Z,50.03
2023-02-14T17:43:07.294Z,87.13
2023-02-14T17:45:37.255Z,44.83
2023-02-14T17:48:07.067Z,67.47
2023-02-14T17:50:37.115Z,89.73
2023-02-14T17:53:07.514Z,88.03
2023-02-14T17:55:38.136Z,83.63
2023-02-14T17:58:08.022Z,82.50
2023-02-14T18:00:38.231Z,43.40
2023-02-14T18:03:07.262Z,49.60
2023-02-14T18:05:40.472Z,46.13
2023-02-14T18:08:10.749Z,105.70
2023-02-14T18:10:43.725Z,49.50
2023-02-14T18:23:55.491Z,77.97
2023-02-14T18:26:34.215Z,77.17
2023-02-14T18:29:08.442Z,72.10
2023-02-14T18:37:04.607Z,79.13
2023-02-14T18:39:35.812Z,58.57
2023-02-14T18:42:05.439Z,86.70
2023-02-14T18:47:21.515Z,69.87
2023-02-14T18:50:29.224Z,36.27
2023-02-14T18:53:07.978Z,75.77
2023-02-14T18:58:17.267Z,62.90
2023-02-14T19:00:46.548Z,41.77
2023-02-14T19:03:15.489Z,58.50
2023-02-14T19:05:43.760Z,61.13
2023-02-14T19:08:11.789Z,47.57
2023-02-14T19:10:39.919Z,32.23
2023-02-14T19:13:08.329Z,59.53
2023-02-14T19:15:42.291Z,37.37
2023-02-14T19:18:10.414Z,68.07
2023-02-14T19:20:38.483Z,44.07
2023-02-14T19:23:06.532Z,43.03
2023-02-14T19:25:34.667Z,39.43
2023-02-14T19:28:02.927Z,45.67
2023-02-14T19:30:31.353Z,40.87
2023-02-14T19:33:01.139Z,39.70
2023-02-14T19:35:29.410Z,29.63
2023-02-14T19:37:58.997Z,53.13
2023-02-14T19:40:27.933Z,58.97
2023-02-14T19:42:56.420Z,41.67
2023-02-14T19:45:27.682Z,44.07
2023-02-14T19:48:07.890Z,24.27
2023-02-14T19:50:38.419Z,56.53
2023-02-14T19:53:06.710Z,35.73
2023-02-14T19:55:35.284Z,24.33
2023-02-14T19:58:03.840Z,37.47
2023-02-14T20:00:32.368Z,23.77
2023-02-14T20:03:09.552Z,26.70
2023-02-14T20:05:41.684Z,20.93
2023-02-14T20:08:12.766Z,28.30
2023-02-14T20:10:53.633Z,18.17
2023-02-14T20:13:21.838Z,23.97
2023-02-14T20:15:49.953Z,40.73
2023-02-14T20:18:19.612Z,36.33
2023-02-14T20:21:03.436Z,32.23
2023-02-14T20:23:33.636Z,20.10
2023-02-14T20:26:02.412Z,47.37
2023-02-14T20:28:30.407Z,53.53
2023-02-14T20:30:58.646Z,34.23
2023-02-14T20:33:30.636Z,30.97
2023-02-14T20:35:58.719Z,35.07
2023-02-14T20:38:26.654Z,25.40
2023-02-14T20:40:54.832Z,25.33
2023-02-14T20:43:25.081Z,31.40
2023-02-14T20:45:54.652Z,25.97
2023-02-14T20:48:22.718Z,54.33
2023-02-14T20:50:54.751Z,25.53
2023-02-14T20:53:26.099Z,24.07
2023-02-14T20:55:54.546Z,17.63
2023-02-14T20:58:25.593Z,35.53
2023-02-14T21:00:57.278Z,73.33
2023-02-14T21:03:25.738Z,30.17
2023-02-14T21:05:58.406Z,14.70
2023-02-14T21:08:26.513Z,18.20
2023-02-14T21:13:59.980Z,24.53
2023-02-14T21:16:30.316Z,28.50
2023-02-14T21:19:00.213Z,23.70
2023-02-14T21:21:32.712Z,24.07
2023-02-14T21:24:02.139Z,36.30
2023-02-14T21:26:30.288Z,24.93
2023-02-14T21:28:58.644Z,38.60
2023-02-14T21:31:26.867Z,42.07
2023-02-14T21:33:56.426Z,46.87
2023-02-14T21:36:26.265Z,31.40
2023-02-14T21:38:56.970Z,67.27
2023-02-14T21:41:26.932Z,26.53
2023-02-14T21:43:56.394Z,18.80
2023-02-14T21:46:27.651Z,58.77
2023-02-14T21:49:14.197Z,36.47
2023-02-14T21:51:42.697Z,62.00
2023-02-14T21:54:19.943Z,42.23
2023-02-14T21:56:49.279Z,58.30
2023-02-14T21:59:19.667Z,26.10
2023-02-14T22:01:47.766Z,29.80
2023-02-14T22:04:29.449Z,33.30
2023-02-14T22:06:58.192Z,71.00
2023-02-14T22:09:27.710Z,58.13
2023-02-14T22:11:55.765Z,22.90
2023-02-14T22:14:29.188Z,22.27
2023-02-14T22:16:57.598Z,34.80
2023-02-14T22:19:26.073Z,25.80
2023-02-14T22:22:01.668Z,22.20
2023-02-14T22:24:31.424Z,25.50
2023-02-14T22:26:59.753Z,22.27
2023-02-14T22:29:29.154Z,58.00
2023-02-14T22:31:57.317Z,29.80
2023-02-14T22:34:28.346Z,53.37
2023-02-14T22:36:56.515Z,32.77
2023-02-14T22:39:24.725Z,15.57
2023-02-14T22:41:55.520Z,36.20
2023-02-14T22:44:23.742Z,32.70
2023-02-14T22:46:52.013Z,40.83
2023-02-14T22:49:20.285Z,27.03
2023-02-14T22:51:48.426Z,18.00
2023-02-14T22:54:17.508Z,26.53
2023-02-14T22:56:47.514Z,46.40
2023-02-14T22:59:19.716Z,17.60
2023-02-14T23:01:48.932Z,40.90
2023-02-14T23:04:21.752Z,69.80
2023-02-14T23:06:52.301Z,45.37
2023-02-14T23:09:21.446Z,37.37
2023-02-14T23:11:50.939Z,28.70
2023-02-14T23:14:38.968Z,25.03
2023-02-14T23:17:25.344Z,27.17
2023-02-14T23:20:10.853Z,39.60
2023-02-14T23:22:41.265Z,29.90
2023-02-14T23:25:12.178Z,28.50
2023-02-14T23:27:43.366Z,36.50
2023-02-14T23:30:16.864Z,23.77
2023-02-14T23:32:46.090Z,36.73
2023-02-14T23:37:58.015Z,18.10
2023-02-14T23:40:27.347Z,15.87
2023-02-14T23:42:56.056Z,27.77
2023-02-14T23:45:38.190Z,36.00
2023-02-14T23:48:06.507Z,32.20
2023-02-14T23:50:34.798Z,51.33
2023-02-14T23:53:03.103Z,19.93
2023-02-14T23:55:31.405Z,24.13
2023-02-14T23:57:59.834Z,15.03
